sensor_id;sensor_type;location;lat;lon;timestamp;P1;durP1;ratioP1;P2;durP2;ratioP2
24567;SDS011;12731;52.182;8.716;2022-08-01T00:02:01;9.73;;;7.75;;
24567;SDS011;12731;52.182;8.716;2022-08-01T00:04:28;10.23;;;8.13;;
24567;SDS011;12731;52.182;8.716;2022-08-01T00:06:54;12.48;;;8.52;;
24567;SDS011;12731;52.182;8.716;2022-08-01T00:09:20;10.85;;;8.45;;
24567;SDS011;12731;52.182;8.716;2022-08-01T00:11:49;12.13;;;8.65;;
24567;SDS011;12731;52.182;8.716;2022-08-01T00:14:25;8.68;;;7.75;;
24567;SDS011;12731;52.182;8.716;2022-08-01T00:16:58;11.48;;;7.72;;
24567;SDS011;12731;52.182;8.716;2022-08-01T00:19:32;9.27;;;7.55;;
24567;SDS011;12731;52.182;8.716;2022-08-01T00:21:58;9.90;;;7.40;;
24567;SDS011;12731;52.182;8.716;2022-08-01T00:24:25;7.95;;;7.07;;
24567;SDS011;12731;52.182;8.716;2022-08-01T00:26:51;8.25;;;7.10;;
24567;SDS011;12731;52.182;8.716;2022-08-01T00:29:18;8.25;;;7.45;;
24567;SDS011;12731;52.182;8.716;2022-08-01T00:32:04;8.60;;;7.20;;
24567;SDS011;12731;52.182;8.716;2022-08-01T00:34:31;9.05;;;7.45;;
24567;SDS011;12731;52.182;8.716;2022-08-01T00:36:58;10.88;;;7.63;;
24567;SDS011;12731;52.182;8.716;2022-08-01T00:39:24;9.23;;;7.47;;
24567;SDS011;12731;52.182;8.716;2022-08-01T00:41:51;11.25;;;7.50;;
24567;SDS011;12731;52.182;8.716;2022-08-01T00:44:25;9.65;;;7.68;;
24567;SDS011;12731;52.182;8.716;2022-08-01T00:46:52;12.07;;;7.32;;
24567;SDS011;12731;52.182;8.716;2022-08-01T00:49:18;8.55;;;7.28;;
24567;SDS011;12731;52.182;8.716;2022-08-01T00:51:45;10.23;;;7.50;;
24567;SDS011;12731;52.182;8.716;2022-08-01T00:54:11;11.63;;;7.70;;
24567;SDS011;12731;52.182;8.716;2022-08-01T00:56:38;9.05;;;7.35;;
24567;SDS011;12731;52.182;8.716;2022-08-01T00:59:04;9.73;;;7.75;;
24567;SDS011;12731;52.182;8.716;2022-08-01T01:01:31;13.38;;;8.10;;
24567;SDS011;12731;52.182;8.716;2022-08-01T01:04:05;10.73;;;8.00;;
24567;SDS011;12731;52.182;8.716;2022-08-01T01:12:37;11.20;;;9.63;;
24567;SDS011;12731;52.182;8.716;2022-08-01T01:15:15;11.80;;;10.07;;
24567;SDS011;12731;52.182;8.716;2022-08-01T01:17:50;13.75;;;9.43;;
24567;SDS011;12731;52.182;8.716;2022-08-01T01:20:20;14.32;;;10.23;;
24567;SDS011;12731;52.182;8.716;2022-08-01T01:28:31;11.75;;;10.10;;
24567;SDS011;12731;52.182;8.716;2022-08-01T01:31:02;11.82;;;9.60;;
24567;SDS011;12731;52.182;8.716;2022-08-01T01:33:30;10.70;;;9.05;;
24567;SDS011;12731;52.182;8.716;2022-08-01T01:35:59;14.82;;;9.43;;
24567;SDS011;12731;52.182;8.716;2022-08-01T01:38:28;10.80;;;8.75;;
24567;SDS011;12731;52.182;8.716;2022-08-01T01:41:02;13.38;;;8.88;;
24567;SDS011;12731;52.182;8.716;2022-08-01T01:43:29;11.05;;;7.63;;
24567;SDS011;12731;52.182;8.716;2022-08-01T01:45:59;9.20;;;7.35;;
24567;SDS011;12731;52.182;8.716;2022-08-01T01:48:26;10.63;;;7.55;;
24567;SDS011;12731;52.182;8.716;2022-08-01T01:50:53;9.30;;;7.90;;
24567;SDS011;12731;52.182;8.716;2022-08-01T01:53:20;11.40;;;7.47;;
24567;SDS011;12731;52.182;8.716;2022-08-01T01:55:48;11.63;;;8.40;;
24567;SDS011;12731;52.182;8.716;2022-08-01T01:58:16;10.57;;;7.80;;
24567;SDS011;12731;52.182;8.716;2022-08-01T02:00:44;11.45;;;7.55;;
24567;SDS011;12731;52.182;8.716;2022-08-01T02:03:12;13.40;;;7.55;;
24567;SDS011;12731;52.182;8.716;2022-08-01T02:05:39;10.80;;;7.70;;
24567;SDS011;12731;52.182;8.716;2022-08-01T02:08:06;11.02;;;7.93;;
24567;SDS011;12731;52.182;8.716;2022-08-01T02:10:34;10.93;;;8.00;;
24567;SDS011;12731;52.182;8.716;2022-08-01T02:13:02;11.93;;;8.75;;
24567;SDS011;12731;52.182;8.716;2022-08-01T02:15:30;9.48;;;8.15;;
24567;SDS011;12731;52.182;8.716;2022-08-01T02:17:57;11.00;;;8.27;;
24567;SDS011;12731;52.182;8.716;2022-08-01T02:20:24;9.80;;;8.48;;
24567;SDS011;12731;52.182;8.716;2022-08-01T02:22:52;11.85;;;8.43;;
24567;SDS011;12731;52.182;8.716;2022-08-01T02:25:22;9.95;;;8.35;;
24567;SDS011;12731;52.182;8.716;2022-08-01T02:32:51;12.93;;;8.43;;
24567;SDS011;12731;52.182;8.716;2022-08-01T02:35:28;9.45;;;8.32;;
24567;SDS011;12731;52.182;8.716;2022-08-01T02:37:57;9.20;;;7.20;;
24567;SDS011;12731;52.182;8.716;2022-08-01T02:40:26;8.63;;;6.80;;
24567;SDS011;12731;52.182;8.716;2022-08-01T02:42:54;13.02;;;7.55;;
24567;SDS011;12731;52.182;8.716;2022-08-01T02:45:25;11.27;;;7.00;;
24567;SDS011;12731;52.182;8.716;2022-08-01T02:47:54;8.48;;;6.88;;
24567;SDS011;12731;52.182;8.716;2022-08-01T02:50:23;7.82;;;7.07;;
24567;SDS011;12731;52.182;8.716;2022-08-01T02:52:52;8.10;;;6.47;;
24567;SDS011;12731;52.182;8.716;2022-08-01T02:55:18;8.40;;;6.30;;
24567;SDS011;12731;52.182;8.716;2022-08-01T02:57:45;6.78;;;5.78;;
24567;SDS011;12731;52.182;8.716;2022-08-01T03:00:22;7.13;;;5.65;;
24567;SDS011;12731;52.182;8.716;2022-08-01T03:02:50;7.43;;;5.40;;
24567;SDS011;12731;52.182;8.716;2022-08-01T03:05:17;6.80;;;5.70;;
24567;SDS011;12731;52.182;8.716;2022-08-01T03:07:44;6.28;;;5.55;;
24567;SDS011;12731;52.182;8.716;2022-08-01T03:10:13;6.97;;;5.10;;
24567;SDS011;12731;52.182;8.716;2022-08-01T03:12:40;8.45;;;5.68;;
24567;SDS011;12731;52.182;8.716;2022-08-01T03:15:07;6.60;;;5.38;;
24567;SDS011;12731;52.182;8.716;2022-08-01T03:17:36;7.18;;;5.93;;
24567;SDS011;12731;52.182;8.716;2022-08-01T03:20:03;7.68;;;5.18;;
24567;SDS011;12731;52.182;8.716;2022-08-01T03:22:30;5.88;;;5.28;;
24567;SDS011;12731;52.182;8.716;2022-08-01T03:24:58;9.38;;;5.65;;
24567;SDS011;12731;52.182;8.716;2022-08-01T03:27:25;8.30;;;5.57;;
24567;SDS011;12731;52.182;8.716;2022-08-01T03:29:54;6.28;;;5.53;;
24567;SDS011;12731;52.182;8.716;2022-08-01T03:32:21;7.57;;;5.57;;
24567;SDS011;12731;52.182;8.716;2022-08-01T03:34:48;6.60;;;5.90;;
24567;SDS011;12731;52.182;8.716;2022-08-01T03:37:19;7.20;;;5.78;;
24567;SDS011;12731;52.182;8.716;2022-08-01T03:39:52;8.00;;;5.88;;
24567;SDS011;12731;52.182;8.716;2022-08-01T03:42:27;10.82;;;6.13;;
24567;SDS011;12731;52.182;8.716;2022-08-01T03:45:02;7.07;;;5.45;;
24567;SDS011;12731;52.182;8.716;2022-08-01T03:47:31;7.30;;;5.82;;
24567;SDS011;12731;52.182;8.716;2022-08-01T03:50:07;9.60;;;5.65;;
24567;SDS011;12731;52.182;8.716;2022-08-01T03:52:38;7.57;;;6.13;;
24567;SDS011;12731;52.182;8.716;2022-08-01T03:55:06;8.82;;;6.28;;
24567;SDS011;12731;52.182;8.716;2022-08-01T03:57:33;7.68;;;6.43;;
24567;SDS011;12731;52.182;8.716;2022-08-01T04:00:03;8.25;;;6.20;;
24567;SDS011;12731;52.182;8.716;2022-08-01T04:02:33;10.77;;;7.32;;
24567;SDS011;12731;52.182;8.716;2022-08-01T04:04:59;7.15;;;6.45;;
24567;SDS011;12731;52.182;8.716;2022-08-01T04:07:27;9.77;;;6.93;;
24567;SDS011;12731;52.182;8.716;2022-08-01T04:09:56;8.18;;;7.00;;
24567;SDS011;12731;52.182;8.716;2022-08-01T04:12:23;9.98;;;7.03;;
24567;SDS011;12731;52.182;8.716;2022-08-01T04:14:50;10.48;;;8.07;;
24567;SDS011;12731;52.182;8.716;2022-08-01T04:17:16;8.98;;;8.10;;
24567;SDS011;12731;52.182;8.716;2022-08-01T04:19:43;9.43;;;7.95;;
24567;SDS011;12731;52.182;8.716;2022-08-01T04:22:10;11.10;;;7.63;;
24567;SDS011;12731;52.182;8.716;2022-08-01T04:24:38;10.10;;;7.93;;
24567;SDS011;12731;52.182;8.716;2022-08-01T04:27:06;11.68;;;7.82;;
24567;SDS011;12731;52.182;8.716;2022-08-01T04:29:36;9.45;;;7.45;;
24567;SDS011;12731;52.182;8.716;2022-08-01T04:32:04;8.93;;;7.55;;
24567;SDS011;12731;52.182;8.716;2022-08-01T04:34:33;10.07;;;7.82;;
24567;SDS011;12731;52.182;8.716;2022-08-01T04:37:00;8.23;;;7.40;;
24567;SDS011;12731;52.182;8.716;2022-08-01T04:39:28;8.00;;;7.10;;
24567;SDS011;12731;52.182;8.716;2022-08-01T04:41:58;9.77;;;7.65;;
24567;SDS011;12731;52.182;8.716;2022-08-01T04:44:26;9.50;;;7.53;;
24567;SDS011;12731;52.182;8.716;2022-08-01T04:47:01;9.80;;;7.67;;
24567;SDS011;12731;52.182;8.716;2022-08-01T04:49:30;10.90;;;8.07;;
24567;SDS011;12731;52.182;8.716;2022-08-01T04:52:13;10.90;;;8.27;;
24567;SDS011;12731;52.182;8.716;2022-08-01T04:54:45;13.45;;;9.38;;
24567;SDS011;12731;52.182;8.716;2022-08-01T04:57:12;9.30;;;8.40;;
24567;SDS011;12731;52.182;8.716;2022-08-01T04:59:41;11.68;;;8.30;;
24567;SDS011;12731;52.182;8.716;2022-08-01T05:02:13;12.55;;;9.38;;
24567;SDS011;12731;52.182;8.716;2022-08-01T05:04:41;13.57;;;9.52;;
24567;SDS011;12731;52.182;8.716;2022-08-01T05:07:08;10.57;;;8.65;;
24567;SDS011;12731;52.182;8.716;2022-08-01T05:09:36;13.85;;;9.15;;
24567;SDS011;12731;52.182;8.716;2022-08-01T05:12:03;12.50;;;9.32;;
24567;SDS011;12731;52.182;8.716;2022-08-01T05:14:32;13.50;;;9.93;;
24567;SDS011;12731;52.182;8.716;2022-08-01T05:16:59;10.75;;;9.65;;
24567;SDS011;12731;52.182;8.716;2022-08-01T05:19:30;9.93;;;8.90;;
24567;SDS011;12731;52.182;8.716;2022-08-01T05:22:00;10.00;;;8.43;;
24567;SDS011;12731;52.182;8.716;2022-08-01T05:24:27;12.38;;;9.23;;
24567;SDS011;12731;52.182;8.716;2022-08-01T05:26:57;12.10;;;8.60;;
24567;SDS011;12731;52.182;8.716;2022-08-01T05:29:24;10.88;;;7.97;;
24567;SDS011;12731;52.182;8.716;2022-08-01T05:31:51;12.38;;;8.25;;
24567;SDS011;12731;52.182;8.716;2022-08-01T05:34:18;10.68;;;8.00;;
24567;SDS011;12731;52.182;8.716;2022-08-01T05:36:45;11.88;;;8.10;;
24567;SDS011;12731;52.182;8.716;2022-08-01T05:39:12;10.82;;;8.30;;
24567;SDS011;12731;52.182;8.716;2022-08-01T05:41:39;11.45;;;8.20;;
24567;SDS011;12731;52.182;8.716;2022-08-01T05:44:06;8.77;;;7.10;;
24567;SDS011;12731;52.182;8.716;2022-08-01T05:46:32;8.75;;;7.60;;
24567;SDS011;12731;52.182;8.716;2022-08-01T05:49:00;9.73;;;7.50;;
24567;SDS011;12731;52.182;8.716;2022-08-01T05:51:27;9.30;;;7.78;;
24567;SDS011;12731;52.182;8.716;2022-08-01T05:53:54;9.20;;;6.85;;
24567;SDS011;12731;52.182;8.716;2022-08-01T05:56:21;9.35;;;7.38;;
24567;SDS011;12731;52.182;8.716;2022-08-01T05:58:48;7.32;;;6.25;;
24567;SDS011;12731;52.182;8.716;2022-08-01T06:01:15;8.73;;;6.25;;
24567;SDS011;12731;52.182;8.716;2022-08-01T06:03:42;7.10;;;6.30;;
24567;SDS011;12731;52.182;8.716;2022-08-01T06:06:09;9.60;;;7.30;;
24567;SDS011;12731;52.182;8.716;2022-08-01T06:08:36;8.90;;;7.13;;
24567;SDS011;12731;52.182;8.716;2022-08-01T06:11:03;7.78;;;6.75;;
24567;SDS011;12731;52.182;8.716;2022-08-01T06:13:29;8.55;;;6.75;;
24567;SDS011;12731;52.182;8.716;2022-08-01T06:18:38;8.10;;;6.60;;
24567;SDS011;12731;52.182;8.716;2022-08-01T06:21:05;8.07;;;6.88;;
24567;SDS011;12731;52.182;8.716;2022-08-01T06:23:31;7.28;;;5.93;;
24567;SDS011;12731;52.182;8.716;2022-08-01T06:25:58;7.22;;;5.38;;
24567;SDS011;12731;52.182;8.716;2022-08-01T06:28:24;5.65;;;5.13;;
24567;SDS011;12731;52.182;8.716;2022-08-01T06:30:51;5.88;;;4.07;;
24567;SDS011;12731;52.182;8.716;2022-08-01T06:33:17;4.75;;;3.40;;
24567;SDS011;12731;52.182;8.716;2022-08-01T06:35:44;3.05;;;2.80;;
24567;SDS011;12731;52.182;8.716;2022-08-01T06:38:10;2.85;;;2.63;;
24567;SDS011;12731;52.182;8.716;2022-08-01T06:40:37;3.67;;;2.78;;
24567;SDS011;12731;52.182;8.716;2022-08-01T06:43:04;3.58;;;2.42;;
24567;SDS011;12731;52.182;8.716;2022-08-01T06:45:30;2.58;;;2.38;;
24567;SDS011;12731;52.182;8.716;2022-08-01T06:47:57;3.60;;;2.50;;
24567;SDS011;12731;52.182;8.716;2022-08-01T06:50:23;2.80;;;2.50;;
24567;SDS011;12731;52.182;8.716;2022-08-01T06:52:50;2.83;;;2.60;;
24567;SDS011;12731;52.182;8.716;2022-08-01T06:55:16;3.28;;;2.60;;
24567;SDS011;12731;52.182;8.716;2022-08-01T06:57:50;3.05;;;2.55;;
24567;SDS011;12731;52.182;8.716;2022-08-01T07:00:18;5.10;;;2.97;;
24567;SDS011;12731;52.182;8.716;2022-08-01T07:02:51;3.15;;;2.55;;
24567;SDS011;12731;52.182;8.716;2022-08-01T07:05:20;4.57;;;3.00;;
24567;SDS011;12731;52.182;8.716;2022-08-01T07:07:47;3.67;;;2.90;;
24567;SDS011;12731;52.182;8.716;2022-08-01T07:10:13;4.50;;;3.10;;
24567;SDS011;12731;52.182;8.716;2022-08-01T07:12:40;4.15;;;3.17;;
24567;SDS011;12731;52.182;8.716;2022-08-01T07:15:07;3.28;;;2.97;;
24567;SDS011;12731;52.182;8.716;2022-08-01T07:17:41;4.97;;;3.20;;
24567;SDS011;12731;52.182;8.716;2022-08-01T07:20:08;3.45;;;2.85;;
24567;SDS011;12731;52.182;8.716;2022-08-01T07:22:39;2.28;;;2.08;;
24567;SDS011;12731;52.182;8.716;2022-08-01T07:25:06;3.85;;;2.13;;
24567;SDS011;12731;52.182;8.716;2022-08-01T07:27:33;2.25;;;2.03;;
24567;SDS011;12731;52.182;8.716;2022-08-01T07:30:00;2.25;;;2.05;;
24567;SDS011;12731;52.182;8.716;2022-08-01T07:32:26;3.80;;;1.88;;
24567;SDS011;12731;52.182;8.716;2022-08-01T07:34:55;2.72;;;2.10;;
24567;SDS011;12731;52.182;8.716;2022-08-01T07:37:22;2.35;;;2.10;;
24567;SDS011;12731;52.182;8.716;2022-08-01T07:40:10;3.70;;;1.90;;
24567;SDS011;12731;52.182;8.716;2022-08-01T07:42:37;2.05;;;1.85;;
24567;SDS011;12731;52.182;8.716;2022-08-01T07:45:03;2.30;;;2.10;;
24567;SDS011;12731;52.182;8.716;2022-08-01T07:47:30;2.40;;;1.98;;
24567;SDS011;12731;52.182;8.716;2022-08-01T07:49:59;2.92;;;2.00;;
24567;SDS011;12731;52.182;8.716;2022-08-01T07:52:26;2.60;;;2.00;;
24567;SDS011;12731;52.182;8.716;2022-08-01T07:54:53;2.70;;;1.80;;
24567;SDS011;12731;52.182;8.716;2022-08-01T07:57:19;2.88;;;1.90;;
24567;SDS011;12731;52.182;8.716;2022-08-01T07:59:46;2.08;;;1.70;;
24567;SDS011;12731;52.182;8.716;2022-08-01T08:02:12;3.00;;;1.90;;
24567;SDS011;12731;52.182;8.716;2022-08-01T08:04:39;2.72;;;1.45;;
24567;SDS011;12731;52.182;8.716;2022-08-01T08:07:10;3.00;;;1.73;;
24567;SDS011;12731;52.182;8.716;2022-08-01T08:09:37;1.90;;;1.65;;
24567;SDS011;12731;52.182;8.716;2022-08-01T08:12:04;2.35;;;1.65;;
24567;SDS011;12731;52.182;8.716;2022-08-01T08:14:31;1.65;;;1.42;;
24567;SDS011;12731;52.182;8.716;2022-08-01T08:16:58;1.25;;;0.82;;
24567;SDS011;12731;52.182;8.716;2022-08-01T08:19:27;1.48;;;0.80;;
24567;SDS011;12731;52.182;8.716;2022-08-01T08:22:03;2.45;;;0.80;;
24567;SDS011;12731;52.182;8.716;2022-08-01T08:24:30;1.33;;;0.70;;
24567;SDS011;12731;52.182;8.716;2022-08-01T08:26:58;2.10;;;0.75;;
24567;SDS011;12731;52.182;8.716;2022-08-01T08:29:26;1.65;;;0.63;;
24567;SDS011;12731;52.182;8.716;2022-08-01T08:31:55;1.15;;;0.77;;
24567;SDS011;12731;52.182;8.716;2022-08-01T08:34:22;1.17;;;0.88;;
24567;SDS011;12731;52.182;8.716;2022-08-01T08:36:49;1.23;;;0.85;;
24567;SDS011;12731;52.182;8.716;2022-08-01T08:39:16;1.20;;;0.88;;
24567;SDS011;12731;52.182;8.716;2022-08-01T08:41:45;1.92;;;0.70;;
24567;SDS011;12731;52.182;8.716;2022-08-01T08:44:14;1.30;;;1.02;;
24567;SDS011;12731;52.182;8.716;2022-08-01T08:46:43;2.72;;;1.00;;
24567;SDS011;12731;52.182;8.716;2022-08-01T08:49:13;3.00;;;0.98;;
24567;SDS011;12731;52.182;8.716;2022-08-01T08:51:42;2.15;;;0.85;;
24567;SDS011;12731;52.182;8.716;2022-08-01T08:54:10;1.95;;;0.95;;
24567;SDS011;12731;52.182;8.716;2022-08-01T08:56:38;2.28;;;0.95;;
24567;SDS011;12731;52.182;8.716;2022-08-01T08:59:05;1.60;;;0.88;;
24567;SDS011;12731;52.182;8.716;2022-08-01T09:01:32;1.25;;;0.93;;
24567;SDS011;12731;52.182;8.716;2022-08-01T09:03:59;2.53;;;1.10;;
24567;SDS011;12731;52.182;8.716;2022-08-01T09:06:25;2.30;;;1.10;;
24567;SDS011;12731;52.182;8.716;2022-08-01T09:08:52;1.55;;;0.82;;
24567;SDS011;12731;52.182;8.716;2022-08-01T09:11:19;1.73;;;0.90;;
24567;SDS011;12731;52.182;8.716;2022-08-01T09:16:42;1.40;;;1.07;;
24567;SDS011;12731;52.182;8.716;2022-08-01T09:19:15;1.25;;;0.75;;
24567;SDS011;12731;52.182;8.716;2022-08-01T09:22:04;1.75;;;0.88;;
24567;SDS011;12731;52.182;8.716;2022-08-01T09:24:34;2.20;;;0.80;;
24567;SDS011;12731;52.182;8.716;2022-08-01T09:27:01;1.35;;;0.93;;
24567;SDS011;12731;52.182;8.716;2022-08-01T09:29:30;1.92;;;0.90;;
24567;SDS011;12731;52.182;8.716;2022-08-01T09:32:06;1.45;;;0.90;;
24567;SDS011;12731;52.182;8.716;2022-08-01T09:34:39;0.82;;;0.82;;
24567;SDS011;12731;52.182;8.716;2022-08-01T09:37:06;1.50;;;1.02;;
24567;SDS011;12731;52.182;8.716;2022-08-01T09:39:36;1.95;;;1.27;;
24567;SDS011;12731;52.182;8.716;2022-08-01T09:42:19;1.55;;;0.85;;
24567;SDS011;12731;52.182;8.716;2022-08-01T09:44:54;1.88;;;1.15;;
24567;SDS011;12731;52.182;8.716;2022-08-01T09:47:21;1.80;;;1.10;;
24567;SDS011;12731;52.182;8.716;2022-08-01T09:49:54;3.33;;;1.20;;
24567;SDS011;12731;52.182;8.716;2022-08-01T09:52:25;2.45;;;1.00;;
24567;SDS011;12731;52.182;8.716;2022-08-01T09:57:29;2.88;;;1.20;;
24567;SDS011;12731;52.182;8.716;2022-08-01T09:59:57;2.50;;;1.20;;
24567;SDS011;12731;52.182;8.716;2022-08-01T10:02:36;1.92;;;1.30;;
24567;SDS011;12731;52.182;8.716;2022-08-01T10:05:06;1.92;;;1.33;;
24567;SDS011;12731;52.182;8.716;2022-08-01T10:07:35;2.28;;;1.40;;
24567;SDS011;12731;52.182;8.716;2022-08-01T10:10:13;2.22;;;1.60;;
24567;SDS011;12731;52.182;8.716;2022-08-01T10:12:41;3.00;;;1.60;;
24567;SDS011;12731;52.182;8.716;2022-08-01T10:15:10;2.28;;;1.75;;
24567;SDS011;12731;52.182;8.716;2022-08-01T10:17:39;3.85;;;1.60;;
24567;SDS011;12731;52.182;8.716;2022-08-01T10:20:15;2.00;;;1.70;;
24567;SDS011;12731;52.182;8.716;2022-08-01T10:22:57;3.25;;;2.00;;
24567;SDS011;12731;52.182;8.716;2022-08-01T10:25:26;2.88;;;2.50;;
24567;SDS011;12731;52.182;8.716;2022-08-01T10:28:15;3.47;;;2.70;;
24567;SDS011;12731;52.182;8.716;2022-08-01T10:30:49;3.38;;;3.08;;
24567;SDS011;12731;52.182;8.716;2022-08-01T10:33:17;3.90;;;3.25;;
24567;SDS011;12731;52.182;8.716;2022-08-01T10:36:04;6.68;;;4.72;;
24567;SDS011;12731;52.182;8.716;2022-08-01T10:38:34;5.40;;;4.90;;
24567;SDS011;12731;52.182;8.716;2022-08-01T10:41:02;3.38;;;3.08;;
24567;SDS011;12731;52.182;8.716;2022-08-01T10:43:31;3.95;;;3.63;;
24567;SDS011;12731;52.182;8.716;2022-08-01T10:46:00;4.88;;;3.90;;
24567;SDS011;12731;52.182;8.716;2022-08-01T10:51:38;5.22;;;3.03;;
24567;SDS011;12731;52.182;8.716;2022-08-01T10:54:18;2.80;;;2.60;;
24567;SDS011;12731;52.182;8.716;2022-08-01T10:56:45;3.88;;;3.08;;
24567;SDS011;12731;52.182;8.716;2022-08-01T10:59:15;4.45;;;3.63;;
24567;SDS011;12731;52.182;8.716;2022-08-01T11:02:07;4.00;;;3.60;;
24567;SDS011;12731;52.182;8.716;2022-08-01T11:07:20;4.88;;;3.50;;
24567;SDS011;12731;52.182;8.716;2022-08-01T11:10:04;5.47;;;3.15;;
24567;SDS011;12731;52.182;8.716;2022-08-01T11:12:40;5.07;;;2.63;;
24567;SDS011;12731;52.182;8.716;2022-08-01T11:17:36;4.78;;;4.10;;
24567;SDS011;12731;52.182;8.716;2022-08-01T11:28:25;4.00;;;3.00;;
24567;SDS011;12731;52.182;8.716;2022-08-01T11:38:41;5.68;;;3.03;;
24567;SDS011;12731;52.182;8.716;2022-08-01T11:41:13;4.15;;;3.38;;
24567;SDS011;12731;52.182;8.716;2022-08-01T11:52:03;2.50;;;2.30;;
24567;SDS011;12731;52.182;8.716;2022-08-01T11:54:32;5.30;;;2.83;;
24567;SDS011;12731;52.182;8.716;2022-08-01T11:57:10;5.07;;;2.60;;
24567;SDS011;12731;52.182;8.716;2022-08-01T11:59:39;3.33;;;3.03;;
24567;SDS011;12731;52.182;8.716;2022-08-01T12:02:29;4.25;;;3.22;;
24567;SDS011;12731;52.182;8.716;2022-08-01T12:04:58;4.97;;;2.90;;
24567;SDS011;12731;52.182;8.716;2022-08-01T12:07:27;4.07;;;3.38;;
24567;SDS011;12731;52.182;8.716;2022-08-01T12:10:01;5.63;;;3.20;;
24567;SDS011;12731;52.182;8.716;2022-08-01T12:12:45;3.67;;;2.92;;
24567;SDS011;12731;52.182;8.716;2022-08-01T12:15:15;3.85;;;2.70;;
24567;SDS011;12731;52.182;8.716;2022-08-01T12:17:43;4.70;;;3.40;;
24567;SDS011;12731;52.182;8.716;2022-08-01T12:20:29;5.63;;;2.80;;
24567;SDS011;12731;52.182;8.716;2022-08-01T12:22:58;3.90;;;2.80;;
24567;SDS011;12731;52.182;8.716;2022-08-01T12:25:26;6.10;;;3.38;;
24567;SDS011;12731;52.182;8.716;2022-08-01T12:27:52;5.97;;;3.38;;
24567;SDS011;12731;52.182;8.716;2022-08-01T12:30:22;6.03;;;4.20;;
24567;SDS011;12731;52.182;8.716;2022-08-01T12:32:50;6.10;;;3.40;;
24567;SDS011;12731;52.182;8.716;2022-08-01T12:35:19;5.88;;;3.83;;
24567;SDS011;12731;52.182;8.716;2022-08-01T12:37:50;6.15;;;3.47;;
24567;SDS011;12731;52.182;8.716;2022-08-01T12:40:28;4.45;;;3.90;;
24567;SDS011;12731;52.182;8.716;2022-08-01T12:43:01;4.60;;;3.28;;
24567;SDS011;12731;52.182;8.716;2022-08-01T12:45:30;3.65;;;2.53;;
24567;SDS011;12731;52.182;8.716;2022-08-01T12:50:49;5.20;;;3.10;;
24567;SDS011;12731;52.182;8.716;2022-08-01T12:53:16;5.75;;;3.28;;
24567;SDS011;12731;52.182;8.716;2022-08-01T12:55:47;4.78;;;3.13;;
24567;SDS011;12731;52.182;8.716;2022-08-01T12:58:29;6.95;;;3.22;;
24567;SDS011;12731;52.182;8.716;2022-08-01T13:01:04;4.07;;;2.50;;
24567;SDS011;12731;52.182;8.716;2022-08-01T13:03:32;3.40;;;2.60;;
24567;SDS011;12731;52.182;8.716;2022-08-01T13:05:59;5.40;;;2.83;;
24567;SDS011;12731;52.182;8.716;2022-08-01T13:13:37;4.10;;;2.55;;
24567;SDS011;12731;52.182;8.716;2022-08-01T13:16:06;4.75;;;2.72;;
24567;SDS011;12731;52.182;8.716;2022-08-01T13:18:47;5.45;;;3.20;;
24567;SDS011;12731;52.182;8.716;2022-08-01T13:21:16;6.15;;;3.15;;
24567;SDS011;12731;52.182;8.716;2022-08-01T13:29:23;3.60;;;2.35;;
24567;SDS011;12731;52.182;8.716;2022-08-01T13:31:54;5.72;;;2.15;;
24567;SDS011;12731;52.182;8.716;2022-08-01T13:34:31;4.38;;;2.42;;
24567;SDS011;12731;52.182;8.716;2022-08-01T13:36:58;3.90;;;2.50;;
24567;SDS011;12731;52.182;8.716;2022-08-01T13:39:31;4.45;;;2.65;;
24567;SDS011;12731;52.182;8.716;2022-08-01T13:42:14;8.10;;;2.63;;
24567;SDS011;12731;52.182;8.716;2022-08-01T13:44:44;6.28;;;2.88;;
24567;SDS011;12731;52.182;8.716;2022-08-01T13:47:11;5.72;;;3.28;;
24567;SDS011;12731;52.182;8.716;2022-08-01T13:49:41;6.75;;;2.92;;
24567;SDS011;12731;52.182;8.716;2022-08-01T13:52:07;5.78;;;2.67;;
24567;SDS011;12731;52.182;8.716;2022-08-01T13:54:34;5.75;;;2.78;;
24567;SDS011;12731;52.182;8.716;2022-08-01T13:57:02;5.38;;;3.20;;
24567;SDS011;12731;52.182;8.716;2022-08-01T13:59:28;8.60;;;3.08;;
24567;SDS011;12731;52.182;8.716;2022-08-01T14:01:55;6.63;;;3.10;;
24567;SDS011;12731;52.182;8.716;2022-08-01T14:04:21;5.43;;;2.65;;
24567;SDS011;12731;52.182;8.716;2022-08-01T14:06:48;6.13;;;3.03;;
24567;SDS011;12731;52.182;8.716;2022-08-01T14:09:15;8.27;;;2.88;;
24567;SDS011;12731;52.182;8.716;2022-08-01T14:11:49;6.50;;;2.47;;
24567;SDS011;12731;52.182;8.716;2022-08-01T14:14:16;5.88;;;2.80;;
24567;SDS011;12731;52.182;8.716;2022-08-01T14:16:42;5.43;;;2.75;;
24567;SDS011;12731;52.182;8.716;2022-08-01T14:19:10;5.55;;;2.63;;
24567;SDS011;12731;52.182;8.716;2022-08-01T14:21:37;6.65;;;2.53;;
24567;SDS011;12731;52.182;8.716;2022-08-01T14:24:03;7.13;;;2.72;;
24567;SDS011;12731;52.182;8.716;2022-08-01T14:26:32;5.93;;;3.25;;
24567;SDS011;12731;52.182;8.716;2022-08-01T14:29:01;7.80;;;2.88;;
24567;SDS011;12731;52.182;8.716;2022-08-01T14:31:27;5.10;;;2.50;;
24567;SDS011;12731;52.182;8.716;2022-08-01T14:33:59;6.47;;;2.78;;
24567;SDS011;12731;52.182;8.716;2022-08-01T14:36:26;6.05;;;2.60;;
24567;SDS011;12731;52.182;8.716;2022-08-01T14:38:56;8.00;;;2.55;;
24567;SDS011;12731;52.182;8.716;2022-08-01T14:41:26;6.85;;;3.08;;
24567;SDS011;12731;52.182;8.716;2022-08-01T14:43:53;10.45;;;3.08;;
24567;SDS011;12731;52.182;8.716;2022-08-01T14:46:19;5.53;;;2.42;;
24567;SDS011;12731;52.182;8.716;2022-08-01T14:48:46;8.65;;;2.63;;
24567;SDS011;12731;52.182;8.716;2022-08-01T14:51:12;5.18;;;2.45;;
24567;SDS011;12731;52.182;8.716;2022-08-01T14:53:42;9.10;;;2.70;;
24567;SDS011;12731;52.182;8.716;2022-08-01T14:56:16;7.57;;;2.38;;
24567;SDS011;12731;52.182;8.716;2022-08-01T14:58:43;6.57;;;2.40;;
24567;SDS011;12731;52.182;8.716;2022-08-01T15:01:10;6.20;;;2.53;;
24567;SDS011;12731;52.182;8.716;2022-08-01T15:03:36;9.18;;;2.58;;
24567;SDS011;12731;52.182;8.716;2022-08-01T15:06:03;5.90;;;2.20;;
24567;SDS011;12731;52.182;8.716;2022-08-01T15:08:29;6.82;;;2.10;;
24567;SDS011;12731;52.182;8.716;2022-08-01T15:10:57;4.20;;;1.88;;
24567;SDS011;12731;52.182;8.716;2022-08-01T15:13:24;6.57;;;2.25;;
24567;SDS011;12731;52.182;8.716;2022-08-01T15:15:50;6.75;;;2.05;;
24567;SDS011;12731;52.182;8.716;2022-08-01T15:18:16;8.48;;;2.22;;
24567;SDS011;12731;52.182;8.716;2022-08-01T15:20:43;6.40;;;2.15;;
24567;SDS011;12731;52.182;8.716;2022-08-01T15:23:11;6.53;;;2.17;;
24567;SDS011;12731;52.182;8.716;2022-08-01T15:25:37;8.73;;;2.67;;
24567;SDS011;12731;52.182;8.716;2022-08-01T15:28:10;6.00;;;2.53;;
24567;SDS011;12731;52.182;8.716;2022-08-01T15:30:37;7.07;;;2.22;;
24567;SDS011;12731;52.182;8.716;2022-08-01T15:33:04;7.80;;;2.83;;
24567;SDS011;12731;52.182;8.716;2022-08-01T15:35:31;6.57;;;2.33;;
24567;SDS011;12731;52.182;8.716;2022-08-01T15:37:57;5.55;;;1.98;;
24567;SDS011;12731;52.182;8.716;2022-08-01T15:40:24;8.45;;;2.30;;
24567;SDS011;12731;52.182;8.716;2022-08-01T15:42:50;7.25;;;2.08;;
24567;SDS011;12731;52.182;8.716;2022-08-01T15:45:18;5.78;;;1.95;;
24567;SDS011;12731;52.182;8.716;2022-08-01T15:48:06;4.57;;;1.92;;
24567;SDS011;12731;52.182;8.716;2022-08-01T15:50:33;7.72;;;2.30;;
24567;SDS011;12731;52.182;8.716;2022-08-01T15:52:59;6.47;;;2.10;;
24567;SDS011;12731;52.182;8.716;2022-08-01T15:55:26;7.38;;;2.38;;
24567;SDS011;12731;52.182;8.716;2022-08-01T15:57:52;6.68;;;2.17;;
24567;SDS011;12731;52.182;8.716;2022-08-01T16:00:19;5.00;;;2.00;;
24567;SDS011;12731;52.182;8.716;2022-08-01T16:02:45;6.88;;;2.03;;
24567;SDS011;12731;52.182;8.716;2022-08-01T16:05:12;9.10;;;2.55;;
24567;SDS011;12731;52.182;8.716;2022-08-01T16:07:42;5.15;;;2.13;;
24567;SDS011;12731;52.182;8.716;2022-08-01T16:10:27;6.25;;;2.08;;